Time;durP1;ratioP1;P1;durP2;ratioP2;P2;SDS_P1;SDS_P2;PMS_P1;PMS_P2;Temp;Humidity;BMP_temperature;BMP_pressure;BME280_temperature;BME280_humidity;BME280_pressure;Samples;Min_cycle;Max_cycle;Signal;HPM_P1;HPM_P2
2024/03/03 00:02:10;;;;;;;16.33;7.68;;;;;;;11.93;66.96;98576.47;4954578;28;20030;-75
2024/03/03 00:04:36;;;;;;;16.25;7.55;;;;;;;11.89;66.44;98574.19;4969339;28;20039;-75
2024/03/03 00:07:01;;;;;;;13.13;7.10;;;;;;;11.86;66.73;98572.69;4953364;28;20035;-74
2024/03/03 00:09:27;;;;;;;16.70;7.45;;;;;;;11.83;66.47;98566.88;4952684;28;20043;-75
2024/03/03 00:11:52;;;;;;;18.80;7.88;;;;;;;11.82;66.28;98575.69;4954559;28;20051;-75
2024/03/03 00:14:18;;;;;;;13.88;7.65;;;;;;;11.73;66.48;98553.75;4954574;28;20027;-76
2024/03/03 00:16:43;;;;;;;16.88;7.50;;;;;;;11.73;66.33;98558.97;4937447;29;20051;-76
2024/03/03 00:19:09;;;;;;;19.63;7.63;;;;;;;11.73;66.04;98557.22;4953125;28;20068;-76
2024/03/03 00:21:34;;;;;;;14.77;7.88;;;;;;;11.71;66.67;98563.50;4937225;29;20031;-76
2024/03/03 00:24:00;;;;;;;14.95;8.00;;;;;;;11.65;66.30;98546.53;4953122;28;20034;-75
2024/03/03 00:26:25;;;;;;;13.57;8.18;;;;;;;11.68;66.19;98548.06;4937165;29;20038;-75
2024/03/03 00:28:51;;;;;;;18.95;8.40;;;;;;;11.65;66.26;98557.00;4953023;28;20050;-75
2024/03/03 00:31:18;;;;;;;16.45;8.35;;;;;;;11.63;66.17;98558.09;4921284;29;20035;-77
2024/03/03 00:33:45;;;;;;;15.75;8.60;;;;;;;11.59;65.96;98557.50;4937411;29;20031;-75
2024/03/03 00:36:10;;;;;;;15.85;8.27;;;;;;;11.53;66.03;98555.44;4953019;28;20035;-75
2024/03/03 00:38:37;;;;;;;15.48;8.48;;;;;;;11.55;66.21;98566.56;4952976;28;20027;-75
2024/03/03 00:41:04;;;;;;;16.33;8.80;;;;;;;11.51;65.76;98565.16;4952997;29;20042;-75
2024/03/03 00:43:30;;;;;;;15.30;8.32;;;;;;;11.49;65.90;98564.47;4937535;29;20490;-77
2024/03/03 00:45:56;;;;;;;21.52;8.77;;;;;;;11.46;66.00;98556.88;4921198;29;20035;-77
2024/03/03 00:48:21;;;;;;;20.90;8.57;;;;;;;11.44;65.78;98557.00;4955040;28;20031;-76
2024/03/03 00:50:47;;;;;;;12.80;7.80;;;;;;;11.40;65.87;98558.19;4957987;28;20413;-76
2024/03/03 00:53:12;;;;;;;17.08;8.32;;;;;;;11.37;65.67;98555.88;4940689;29;20250;-76
2024/03/03 00:55:38;;;;;;;17.63;9.27;;;;;;;11.31;65.45;98546.75;4956734;29;20054;-76
2024/03/03 00:58:04;;;;;;;13.95;8.18;;;;;;;11.31;65.37;98551.16;4940811;29;20094;-76
2024/03/03 01:00:30;;;;;;;13.55;8.80;;;;;;;11.26;65.25;98543.69;4940739;29;20418;-76
2024/03/03 01:02:55;;;;;;;17.20;8.82;;;;;;;11.19;65.41;98543.34;4956614;29;20027;-77
2024/03/03 01:05:21;;;;;;;14.57;8.13;;;;;;;11.17;65.18;98540.03;4940909;29;20047;-77
2024/03/03 01:07:46;;;;;;;17.20;7.72;;;;;;;11.17;65.42;98549.66;4956543;29;20106;-78
2024/03/03 01:10:13;;;;;;;18.08;8.10;;;;;;;11.08;65.31;98535.56;4956269;28;20094;-75
2024/03/03 01:12:38;;;;;;;14.77;8.82;;;;;;;11.06;65.31;98534.03;4940639;28;20043;-78
2024/03/03 01:15:05;;;;;;;13.93;7.80;;;;;;;11.08;65.28;98547.78;4924421;29;20035;-75
2024/03/03 01:17:30;;;;;;;16.80;9.05;;;;;;;11.02;64.78;98541.28;4924570;29;20372;-76
2024/03/03 01:19:56;;;;;;;15.45;8.38;;;;;;;11.01;64.79;98545.69;4956291;29;20090;-76
2024/03/03 01:22:21;;;;;;;18.83;8.18;;;;;;;10.97;64.87;98544.25;4940308;29;20091;-74
2024/03/03 01:24:46;;;;;;;14.88;8.55;;;;;;;10.94;64.62;98539.31;4956194;29;20031;-75
2024/03/03 01:27:12;;;;;;;16.13;8.30;;;;;;;10.93;64.80;98536.81;4956694;28;20031;-74
2024/03/03 01:29:37;;;;;;;14.70;7.32;;;;;;;10.90;64.79;98542.28;4939726;29;20039;-75
2024/03/03 01:32:03;;;;;;;13.18;7.90;;;;;;;10.88;64.58;98538.94;4957088;28;20035;-75
2024/03/03 01:34:30;;;;;;;13.18;7.95;;;;;;;10.83;64.91;98534.09;4957332;28;20032;-75
2024/03/03 01:36:55;;;;;;;12.13;7.72;;;;;;;10.81;64.55;98536.84;4940086;29;20110;-75
2024/03/03 01:39:21;;;;;;;15.40;7.95;;;;;;;10.80;64.67;98529.13;4957079;28;20467;-76
2024/03/03 01:41:49;;;;;;;12.50;7.53;;;;;;;10.72;64.57;98519.31;4954925;28;20063;-76
2024/03/03 01:44:15;;;;;;;15.18;7.82;;;;;;;10.68;64.51;98518.72;4940376;29;20034;-76
2024/03/03 01:46:40;;;;;;;13.93;7.82;;;;;;;10.68;64.44;98531.78;4923950;29;20023;-76
2024/03/03 01:49:07;;;;;;;14.02;7.68;;;;;;;10.64;64.24;98526.91;4940154;29;20031;-76
2024/03/03 01:51:32;;;;;;;12.77;7.50;;;;;;;10.67;64.23;98526.66;4955421;28;20086;-75
2024/03/03 01:53:58;;;;;;;14.60;7.82;;;;;;;10.64;64.38;98532.13;4954979;29;20032;-76
2024/03/03 01:56:25;;;;;;;13.45;7.90;;;;;;;10.57;64.20;98521.34;4939598;29;20469;-75
2024/03/03 01:58:51;;;;;;;14.80;8.35;;;;;;;10.52;64.16;98515.69;4939307;28;20035;-75
2024/03/03 02:01:17;;;;;;;15.07;8.20;;;;;;;10.58;64.08;98528.25;4923923;29;20067;-75
2024/03/03 02:03:43;;;;;;;15.25;8.70;;;;;;;10.57;64.16;98526.56;4923730;29;20447;-75
2024/03/03 02:06:08;;;;;;;16.58;10.02;;;;;;;10.54;64.10;98520.78;4923671;29;20070;-75
2024/03/03 02:08:34;;;;;;;20.23;10.35;;;;;;;10.52;63.98;98530.53;4955567;28;20054;-76
2024/03/03 02:10:59;;;;;;;15.75;9.95;;;;;;;10.52;63.93;98530.53;4939070;29;20082;-76
2024/03/03 02:13:25;;;;;;;19.27;10.90;;;;;;;10.47;63.89;98526.50;4955351;28;20031;-75
2024/03/03 02:15:50;;;;;;;19.67;11.15;;;;;;;10.47;63.92;98525.66;4955236;29;20035;-75
2024/03/03 02:18:16;;;;;;;17.58;10.40;;;;;;;10.42;63.98;98527.78;4956392;28;20402;-75
2024/03/03 02:20:41;;;;;;;20.13;10.98;;;;;;;10.38;63.90;98521.16;4955270;29;20065;-75
2024/03/03 02:23:08;;;;;;;18.38;10.93;;;;;;;10.39;64.06;98521.06;4955266;29;20031;-75
2024/03/03 02:25:34;;;;;;;18.60;10.93;;;;;;;10.37;63.86;98524.72;4939250;29;20039;-75
2024/03/03 02:28:01;;;;;;;16.92;10.63;;;;;;;10.38;64.09;98529.81;4940273;29;20031;-75
2024/03/03 02:30:27;;;;;;;17.98;11.05;;;;;;;10.37;63.88;98529.94;4939925;29;20037;-75
2024/03/03 02:32:52;;;;;;;17.90;11.23;;;;;;;10.37;63.92;98537.75;4939019;29;20027;-75
2024/03/03 02:35:18;;;;;;;19.25;10.77;;;;;;;10.29;63.78;98526.13;4954636;29;20043;-76
2024/03/03 02:37:46;;;;;;;15.63;10.32;;;;;;;10.31;63.79;98542.50;4955110;28;20398;-76
2024/03/03 02:40:11;;;;;;;20.00;11.83;;;;;;;10.31;64.01;98541.66;4954932;29;20441;-75
2024/03/03 02:42:37;;;;;;;15.68;10.68;;;;;;;10.30;63.99;98538.22;4938866;29;20049;-75
2024/03/03 02:45:03;;;;;;;20.13;11.00;;;;;;;10.25;63.71;98529.09;4938352;29;20039;-75
2024/03/03 02:47:28;;;;;;;20.45;12.90;;;;;;;10.29;63.66;98540.94;4954628;28;20039;-74
2024/03/03 02:49:54;;;;;;;20.20;12.85;;;;;;;10.29;63.96;98544.41;4955736;28;20043;-74
2024/03/03 02:52:19;;;;;;;20.15;13.18;;;;;;;10.29;64.04;98551.38;4922710;29;20031;-74
2024/03/03 02:54:45;;;;;;;18.98;12.65;;;;;;;10.28;63.80;98554.94;4954747;29;20043;-75
2024/03/03 02:57:10;;;;;;;21.33;12.93;;;;;;;10.26;63.62;98555.06;4938940;29;20063;-75
2024/03/03 02:59:36;;;;;;;24.98;13.55;;;;;;;10.24;63.59;98548.31;4938904;29;20094;-75
2024/03/03 03:02:01;;;;;;;22.17;12.70;;;;;;;10.26;63.89;98554.22;4954160;28;20043;-74
2024/03/03 03:04:27;;;;;;;23.70;13.07;;;;;;;10.25;63.71;98558.63;4955326;28;20445;-74
2024/03/03 03:06:52;;;;;;;21.73;12.50;;;;;;;10.24;63.66;98566.56;4953994;29;20051;-74
2024/03/03 03:09:18;;;;;;;19.05;11.73;;;;;;;10.21;63.66;98557.19;4937965;29;20039;-74
2024/03/03 03:11:43;;;;;;;19.95;12.02;;;;;;;10.20;63.44;98565.97;4937203;29;20094;-75
2024/03/03 03:14:09;;;;;;;18.90;10.75;;;;;;;10.14;63.51;98553.41;4953895;29;20031;-76
2024/03/03 03:16:38;;;;;;;16.65;10.32;;;;;;;10.16;63.36;98551.50;4938076;29;20047;-75
2024/03/03 03:19:04;;;;;;;18.80;11.13;;;;;;;10.14;63.51;98550.81;4938313;29;20058;-75
2024/03/03 03:21:29;;;;;;;14.80;10.80;;;;;;;10.09;63.43;98547.72;4921940;29;20039;-75
2024/03/03 03:23:54;;;;;;;16.55;10.38;;;;;;;10.10;63.60;98562.41;4953812;29;20478;-75
2024/03/03 03:26:20;;;;;;;17.92;11.32;;;;;;;10.04;63.49;98558.50;4954938;28;20027;-75
2024/03/03 03:28:46;;;;;;;19.90;11.57;;;;;;;10.02;63.49;98559.56;4937910;29;20098;-75
2024/03/03 03:31:12;;;;;;;22.65;12.85;;;;;;;9.99;63.35;98555.41;4938194;29;20035;-75
2024/03/03 03:33:37;;;;;;;23.25;13.50;;;;;;;9.99;63.44;98559.81;4937173;29;20027;-76
2024/03/03 03:36:07;;;;;;;24.70;15.07;;;;;;;9.96;63.59;98561.69;4952984;29;20482;-76
2024/03/03 03:38:33;;;;;;;25.85;14.52;;;;;;;9.95;63.30;98565.25;4937349;29;20039;-75
2024/03/03 03:40:58;;;;;;;20.98;14.18;;;;;;;9.93;63.22;98567.16;4937436;29;20042;-75
2024/03/03 03:43:24;;;;;;;21.48;12.95;;;;;;;9.91;63.25;98571.63;4953994;29;20042;-75
2024/03/03 03:45:49;;;;;;;25.05;13.93;;;;;;;9.94;63.30;98584.44;4937292;29;20043;-75
2024/03/03 03:48:15;;;;;;;26.75;14.57;;;;;;;9.88;63.09;98566.69;4937307;29;20066;-75
2024/03/03 03:50:40;;;;;;;21.00;12.63;;;;;;;9.92;63.37;98578.53;4937077;29;20504;-75
2024/03/03 03:53:07;;;;;;;19.25;12.98;;;;;;;9.90;63.22;98577.81;4938086;28;20038;-75
2024/03/03 03:55:32;;;;;;;22.98;13.05;;;;;;;9.86;63.38;98578.97;4937484;29;20035;-75
2024/03/03 03:57:58;;;;;;;22.98;12.60;;;;;;;9.84;63.20;98578.28;4953506;29;20036;-75
2024/03/03 04:00:23;;;;;;;20.80;12.02;;;;;;;9.87;63.31;98583.25;4953005;29;20035;-76
2024/03/03 04:02:49;;;;;;;22.67;12.15;;;;;;;9.86;63.21;98581.59;4969025;28;20355;-74
2024/03/03 04:05:14;;;;;;;17.92;11.35;;;;;;;9.80;63.02;98576.84;4954156;28;20095;-74
2024/03/03 04:07:40;;;;;;;18.30;11.93;;;;;;;9.83;62.94;98579.22;4952832;29;20038;-75
2024/03/03 04:10:07;;;;;;;16.75;10.65;;;;;;;9.84;63.22;98582.66;4954409;28;20039;-74
2024/03/03 04:12:32;;;;;;;17.58;10.77;;;;;;;9.84;63.16;98580.06;4937318;29;20058;-75
2024/03/03 04:14:58;;;;;;;17.33;10.32;;;;;;;9.84;63.30;98582.66;4954178;28;20398;-76
2024/03/03 04:17:23;;;;;;;16.67;10.68;;;;;;;9.79;63.09;98580.41;4921104;29;20094;-75
2024/03/03 04:19:49;;;;;;;14.93;9.98;;;;;;;9.81;63.27;98586.31;4921011;28;20038;-76
2024/03/03 04:22:14;;;;;;;24.92;11.25;;;;;;;9.80;63.24;98589.88;4952877;28;20035;-75
2024/03/03 04:24:40;;;;;;;20.25;11.13;;;;;;;9.81;63.18;98590.72;4954004;28;20031;-76
2024/03/03 04:27:05;;;;;;;24.13;13.25;;;;;;;9.81;63.21;98595.94;4936839;29;20046;-74
2024/03/03 04:29:32;;;;;;;23.25;13.50;;;;;;;9.75;63.35;98587.59;4952417;28;20466;-76
2024/03/03 04:31:58;;;;;;;23.35;13.75;;;;;;;9.81;63.34;98598.53;4937261;29;20508;-75
2024/03/03 04:34:26;;;;;;;23.35;13.85;;;;;;;9.81;63.34;98611.56;4968938;28;20035;-75
2024/03/03 04:36:52;;;;;;;28.40;14.52;;;;;;;9.80;63.35;98602.91;4969185;28;20043;-75
2024/03/03 04:39:17;;;;;;;23.30;14.07;;;;;;;9.76;63.26;98598.88;4936682;29;20515;-75
2024/03/03 04:41:43;;;;;;;27.52;14.48;;;;;;;9.81;63.34;98609.78;4936751;29;20035;-75
2024/03/03 04:44:08;;;;;;;24.83;13.52;;;;;;;9.81;63.28;98612.41;4953066;29;20110;-76
2024/03/03 04:46:34;;;;;;;20.95;13.73;;;;;;;9.81;63.32;98612.41;4936678;29;20039;-75
2024/03/03 04:48:59;;;;;;;22.75;13.32;;;;;;;9.83;63.16;98615.72;4952714;29;20144;-75
2024/03/03 04:51:25;;;;;;;22.35;13.10;;;;;;;9.84;63.24;98616.56;4936661;29;20450;-75
2024/03/03 04:53:50;;;;;;;22.83;12.45;;;;;;;9.80;63.24;98613.34;4953876;28;20031;-75
2024/03/03 04:56:17;;;;;;;20.10;12.43;;;;;;;9.86;63.40;98625.91;4952358;28;20490;-75
2024/03/03 04:58:43;;;;;;;19.73;12.90;;;;;;;9.74;63.50;98599.00;4952360;28;20069;-75
2024/03/03 05:01:08;;;;;;;20.08;12.40;;;;;;;9.89;63.42;98622.25;4969079;28;20074;-76
2024/03/03 05:03:34;;;;;;;18.77;11.40;;;;;;;9.92;63.45;98625.44;4936779;29;20114;-75
2024/03/03 05:06:00;;;;;;;23.00;12.48;;;;;;;9.91;63.42;98623.78;4953514;28;20462;-74
2024/03/03 05:08:26;;;;;;;18.63;11.55;;;;;;;9.99;63.55;98632.81;4936900;29;20403;-75
2024/03/03 05:10:51;;;;;;;18.65;11.77;;;;;;;10.01;63.56;98634.38;4936290;29;20051;-75
2024/03/03 05:13:17;;;;;;;16.42;10.95;;;;;;;10.04;63.54;98631.53;4936485;29;20398;-78
2024/03/03 05:15:42;;;;;;;19.63;12.00;;;;;;;10.07;63.59;98636.53;4968546;28;20087;-74
2024/03/03 05:18:08;;;;;;;17.23;10.88;;;;;;;10.06;63.46;98628.81;4953553;28;20046;-77
2024/03/03 05:20:33;;;;;;;19.65;11.57;;;;;;;10.09;63.84;98631.19;4936759;28;20458;-76
2024/03/03 05:22:58;;;;;;;20.23;11.90;;;;;;;10.11;63.68;98634.50;4952528;28;20110;-76
2024/03/03 05:25:24;;;;;;;16.23;10.23;;;;;;;10.13;63.60;98641.25;4951779;28;20047;-75
2024/03/03 05:27:51;;;;;;;18.83;10.60;;;;;;;10.16;63.46;98636.75;4936281;29;20090;-76
2024/03/03 05:30:17;;;;;;;16.92;10.68;;;;;;;10.24;63.62;98648.25;4952432;29;20031;-76
2024/03/03 05:32:42;;;;;;;17.73;9.75;;;;;;;10.27;63.69;98653.25;4952193;28;20399;-75
2024/03/03 05:35:11;;;;;;;18.42;10.32;;;;;;;10.29;63.86;98646.16;4955438;28;20035;-75
2024/03/03 05:37:37;;;;;;;15.32;9.85;;;;;;;10.33;63.57;98649.38;4955855;28;20027;-75
2024/03/03 05:40:03;;;;;;;15.95;10.15;;;;;;;10.31;63.80;98641.63;4972144;28;20054;-76
2024/03/03 05:42:28;;;;;;;17.15;10.15;;;;;;;10.36;63.58;98643.06;4955973;28;20023;-74
2024/03/03 05:44:55;;;;;;;20.75;11.52;;;;;;;10.41;63.70;98648.78;4955625;28;20459;-74
2024/03/03 05:47:20;;;;;;;20.30;11.18;;;;;;;10.44;63.75;98646.78;5019691;23;20051;-70
2024/03/03 05:49:46;;;;;;;20.75;11.68;;;;;;;10.47;63.59;98651.75;4930051;29;20051;-72
2024/03/03 05:52:11;;;;;;;18.85;12.38;;;;;;;10.51;63.66;98647.13;4948713;29;20187;-74
2024/03/03 05:54:37;;;;;;;20.77;12.52;;;;;;;10.54;63.80;98639.06;4934866;29;20091;-69
2024/03/03 05:57:03;;;;;;;23.25;13.50;;;;;;;10.59;63.76;98638.69;4935498;29;20047;-68
2024/03/03 05:59:28;;;;;;;21.13;12.70;;;;;;;10.64;63.43;98639.16;4936754;29;20028;-68
2024/03/03 06:01:54;;;;;;;22.10;13.25;;;;;;;10.63;63.32;98629.69;4935475;29;20099;-71
2024/03/03 06:04:19;;;;;;;26.13;13.02;;;;;;;10.73;63.54;98646.28;4935400;29;20035;-69
2024/03/03 06:06:45;;;;;;;19.52;12.15;;;;;;;10.76;63.30;98643.44;4936513;29;20039;-68
2024/03/03 06:09:12;;;;;;;20.58;12.10;;;;;;;10.79;63.34;98651.03;4936876;29;20031;-70
2024/03/03 06:11:41;;;;;;;18.42;11.15;;;;;;;10.86;63.40;98653.97;4935621;29;20038;-70
